createdAt,value
2023-05-21T00:00:30.125Z,6.43
2023-05-21T00:02:59.389Z,7.77
2023-05-21T00:05:26.877Z,8.27
2023-05-21T00:07:55.041Z,8.00
2023-05-21T00:10:22.523Z,7.17
2023-05-21T00:12:49.789Z,8.70
2023-05-21T00:15:16.942Z,7.47
2023-05-21T00:17:44.658Z,7.87
2023-05-21T00:20:13.082Z,8.60
2023-05-21T00:22:42.599Z,7.27
2023-05-21T00:25:13.039Z,7.67
2023-05-21T00:27:40.312Z,8.20
2023-05-21T00:30:08.410Z,6.77
2023-05-21T00:32:35.558Z,7.77
2023-05-21T00:35:03.068Z,7.70
2023-05-21T00:37:33.068Z,7.90
2023-05-21T00:40:06.611Z,7.20
2023-05-21T00:42:33.864Z,7.93
2023-05-21T00:45:03.748Z,7.47
2023-05-21T00:47:31.329Z,7.00
2023-05-21T00:49:59.235Z,7.53
2023-05-21T00:52:29.616Z,7.23
2023-05-21T00:54:56.823Z,7.30
2023-05-21T00:57:27.242Z,8.27
2023-05-21T00:59:54.704Z,8.23
2023-05-21T01:02:24.416Z,8.20
2023-05-21T01:04:56.086Z,9.27
2023-05-21T01:07:23.435Z,7.70
2023-05-21T01:09:50.851Z,6.87
2023-05-21T01:12:19.426Z,6.57
2023-05-21T01:14:47.508Z,6.47
2023-05-21T01:17:15.932Z,8.17
2023-05-21T01:19:44.776Z,6.37
2023-05-21T01:22:14.344Z,8.50
2023-05-21T01:24:41.792Z,8.10
2023-05-21T01:27:10.589Z,9.00
2023-05-21T01:29:37.904Z,8.73
2023-05-21T01:32:25.113Z,7.50
2023-05-21T01:35:09.581Z,7.60
2023-05-21T01:38:16.011Z,6.13
2023-05-21T01:40:54.460Z,9.10
2023-05-21T01:43:24.154Z,7.67
2023-05-21T01:45:55.857Z,8.20
2023-05-21T01:48:27.323Z,7.33
2023-05-21T01:50:58.018Z,8.87
2023-05-21T01:53:25.325Z,8.60
2023-05-21T01:55:52.671Z,6.57
2023-05-21T01:58:21.213Z,7.17
2023-05-21T02:00:51.097Z,8.00
2023-05-21T02:03:22.084Z,8.63
2023-05-21T02:05:52.113Z,7.93
2023-05-21T02:08:20.180Z,8.37
2023-05-21T02:10:47.642Z,7.83
2023-05-21T02:13:14.775Z,6.97
2023-05-21T02:15:42.535Z,7.20
2023-05-21T02:18:09.732Z,6.57
2023-05-21T02:20:36.942Z,8.40
2023-05-21T02:23:04.108Z,7.70
2023-05-21T02:25:31.327Z,7.80
2023-05-21T02:27:58.445Z,7.47
2023-05-21T02:30:25.617Z,7.20
2023-05-21T02:32:53.945Z,8.20
2023-05-21T02:35:21.273Z,6.00
2023-05-21T02:37:49.022Z,6.80
2023-05-21T02:40:16.482Z,6.80
2023-05-21T02:42:43.750Z,7.83
2023-05-21T02:45:15.463Z,7.87
2023-05-21T02:47:43.949Z,5.40
2023-05-21T02:50:11.343Z,7.50
2023-05-21T02:52:46.392Z,7.13
2023-05-21T02:55:13.982Z,8.23
2023-05-21T02:57:41.129Z,6.23
2023-05-21T03:00:09.970Z,7.43
2023-05-21T03:02:38.813Z,6.40
2023-05-21T03:05:07.011Z,7.13
2023-05-21T03:07:34.163Z,8.50
2023-05-21T03:10:01.830Z,8.10
2023-05-21T03:12:28.996Z,7.73
2023-05-21T03:14:56.419Z,8.77
2023-05-21T03:17:23.912Z,8.37
2023-05-21T03:19:52.059Z,7.10
2023-05-21T03:22:20.130Z,7.60
2023-05-21T03:24:47.440Z,7.60
2023-05-21T03:27:15.305Z,6.10
2023-05-21T03:29:44.647Z,7.80
2023-05-21T03:32:14.068Z,7.57
2023-05-21T03:34:42.168Z,5.77
2023-05-21T03:37:09.362Z,9.00
2023-05-21T03:39:37.173Z,7.37
2023-05-21T03:42:06.172Z,7.27
2023-05-21T03:44:40.469Z,7.80
2023-05-21T03:47:30.289Z,7.77
2023-05-21T03:49:58.136Z,6.90
2023-05-21T03:52:25.358Z,7.43
2023-05-21T03:54:52.540Z,7.97
2023-05-21T03:57:19.737Z,7.10
2023-05-21T03:59:47.928Z,7.33
2023-05-21T04:02:15.630Z,8.27
2023-05-21T04:04:44.480Z,7.57
2023-05-21T04:07:15.314Z,7.40
2023-05-21T04:09:42.562Z,7.53
2023-05-21T04:12:09.681Z,8.47
2023-05-21T04:14:38.172Z,8.20
2023-05-21T04:17:05.863Z,7.20
2023-05-21T04:19:33.777Z,8.37
2023-05-21T04:22:03.239Z,7.47
2023-05-21T04:24:31.330Z,8.30
2023-05-21T04:27:10.127Z,8.07
2023-05-21T04:29:37.851Z,8.47
2023-05-21T04:32:06.349Z,8.67
2023-05-21T04:34:34.401Z,7.10
2023-05-21T04:37:04.839Z,7.37
2023-05-21T04:39:32.730Z,8.83
2023-05-21T04:41:59.822Z,7.70
2023-05-21T04:44:26.956Z,7.27
2023-05-21T04:46:55.043Z,7.53
2023-05-21T04:49:22.372Z,8.23
2023-05-21T04:51:49.547Z,7.93
2023-05-21T04:54:16.931Z,9.60
2023-05-21T04:56:44.476Z,7.00
2023-05-21T04:59:11.744Z,7.30
2023-05-21T05:01:39.336Z,8.70
2023-05-21T05:04:07.043Z,8.50
2023-05-21T05:06:34.252Z,8.40
2023-05-21T05:09:01.386Z,7.80
2023-05-21T05:11:28.476Z,7.83
2023-05-21T05:13:55.897Z,9.40
2023-05-21T05:16:25.266Z,8.87
2023-05-21T05:18:53.810Z,7.13
2023-05-21T05:21:24.111Z,6.17
2023-05-21T05:23:51.480Z,7.77
2023-05-21T05:26:22.343Z,9.27
2023-05-21T05:28:49.878Z,9.20
2023-05-21T05:31:17.113Z,8.97
2023-05-21T05:33:44.634Z,8.47
2023-05-21T05:36:12.439Z,8.93
2023-05-21T05:38:40.110Z,7.87
2023-05-21T05:41:07.466Z,8.07
2023-05-21T05:43:34.760Z,8.13
2023-05-21T05:46:02.057Z,7.63
2023-05-21T05:48:29.293Z,10.03
2023-05-21T05:50:57.842Z,9.23
2023-05-21T05:53:26.659Z,8.80
2023-05-21T05:55:54.384Z,8.60
2023-05-21T05:58:21.514Z,9.43
2023-05-21T06:00:56.875Z,10.93
2023-05-21T06:03:25.201Z,8.17
2023-05-21T06:05:53.693Z,10.77
2023-05-21T06:08:20.889Z,10.17
2023-05-21T06:10:48.027Z,9.53
2023-05-21T06:13:15.620Z,10.70
2023-05-21T06:15:45.753Z,9.27
2023-05-21T06:18:13.037Z,9.17
2023-05-21T06:20:40.586Z,10.97
2023-05-21T06:23:08.917Z,11.40
2023-05-21T06:25:36.914Z,10.00
2023-05-21T06:28:04.820Z,10.17
2023-05-21T06:30:33.374Z,10.50
2023-05-21T06:33:00.858Z,8.60
2023-05-21T06:35:28.096Z,9.20
2023-05-21T06:37:55.539Z,10.60
2023-05-21T06:40:22.919Z,9.40
2023-05-21T06:42:53.504Z,11.33
2023-05-21T06:45:39.744Z,8.80
2023-05-21T06:48:32.188Z,8.17
2023-05-21T06:50:59.779Z,9.17
2023-05-21T06:53:26.957Z,8.77
2023-05-21T06:55:54.264Z,8.80
2023-05-21T06:58:39.351Z,10.60
2023-05-21T07:01:06.822Z,10.30
2023-05-21T07:03:34.107Z,9.03
2023-05-21T07:06:02.006Z,8.93
2023-05-21T07:08:29.145Z,8.80
2023-05-21T07:10:56.936Z,8.60
2023-05-21T07:13:24.751Z,10.27
2023-05-21T07:15:53.409Z,9.97
2023-05-21T07:18:21.086Z,10.23
2023-05-21T07:20:48.310Z,10.07
2023-05-21T07:23:16.647Z,10.33
2023-05-21T07:25:44.463Z,10.20
2023-05-21T07:28:13.427Z,9.10
2023-05-21T07:30:40.639Z,8.97
2023-05-21T07:33:12.814Z,7.90
2023-05-21T07:35:40.947Z,8.60
2023-05-21T07:38:08.227Z,9.17
2023-05-21T07:40:35.398Z,9.60
2023-05-21T07:43:03.597Z,9.53
2023-05-21T07:45:32.078Z,9.23
2023-05-21T07:47:59.413Z,8.97
2023-05-21T07:50:27.925Z,9.37
2023-05-21T07:52:55.177Z,9.60
2023-05-21T07:55:22.420Z,9.00
2023-05-21T07:57:52.350Z,9.90
2023-05-21T08:00:25.003Z,9.47
2023-05-21T08:02:56.221Z,8.20
2023-05-21T08:05:25.725Z,8.67
2023-05-21T08:07:52.989Z,9.80
2023-05-21T08:10:20.852Z,8.97
2023-05-21T08:12:51.180Z,8.87
2023-05-21T08:15:19.258Z,8.97
2023-05-21T08:17:46.434Z,9.80
2023-05-21T08:20:15.207Z,9.80
2023-05-21T08:22:44.471Z,9.10
2023-05-21T08:25:12.124Z,8.40
2023-05-21T08:27:39.373Z,8.43
2023-05-21T08:30:07.630Z,8.50
2023-05-21T08:32:35.426Z,10.53
2023-05-21T08:35:02.846Z,9.97
2023-05-21T08:37:50.805Z,9.30
2023-05-21T08:40:46.258Z,9.30
2023-05-21T08:43:16.497Z,8.50
2023-05-21T08:45:53.238Z,8.87
2023-05-21T08:48:24.040Z,8.67
2023-05-21T08:50:54.560Z,8.83
2023-05-21T08:53:30.376Z,7.97
2023-05-21T08:55:58.714Z,8.43
2023-05-21T08:58:44.674Z,9.10
2023-05-21T09:01:13.193Z,7.53
2023-05-21T09:03:44.321Z,9.43
2023-05-21T09:06:14.167Z,8.57
2023-05-21T09:08:46.390Z,7.60
2023-05-21T09:11:22.545Z,7.87
2023-05-21T09:13:57.932Z,6.27
2023-05-21T09:16:32.777Z,7.23
2023-05-21T09:19:02.276Z,8.63
2023-05-21T09:21:34.077Z,6.70
2023-05-21T09:24:14.319Z,5.70
2023-05-21T09:26:45.575Z,6.97
2023-05-21T09:29:13.976Z,5.97
2023-05-21T09:31:45.315Z,5.83
2023-05-21T09:34:17.113Z,6.30
2023-05-21T09:36:48.895Z,5.87
2023-05-21T09:39:32.198Z,4.80
2023-05-21T09:42:03.381Z,5.67
2023-05-21T09:44:30.926Z,7.10
2023-05-21T09:47:01.762Z,16.93
2023-05-21T09:49:30.328Z,6.23
2023-05-21T09:52:00.885Z,6.57
2023-05-21T09:54:34.144Z,10.13
2023-05-21T09:57:02.851Z,11.27
2023-05-21T09:59:39.911Z,6.73
2023-05-21T10:02:23.181Z,5.87
2023-05-21T10:04:54.409Z,6.50
2023-05-21T10:07:28.941Z,14.20
2023-05-21T10:09:58.009Z,8.90
2023-05-21T10:12:27.799Z,8.47
2023-05-21T10:15:04.407Z,7.93
2023-05-21T10:17:32.535Z,6.33
2023-05-21T10:20:01.686Z,10.23
2023-05-21T10:22:29.619Z,7.20
2023-05-21T10:24:58.288Z,10.33
2023-05-21T10:27:26.296Z,10.87
2023-05-21T10:29:57.671Z,7.47
2023-05-21T10:32:27.535Z,9.80
2023-05-21T10:34:55.633Z,7.50
2023-05-21T10:37:27.749Z,7.13
2023-05-21T10:39:58.052Z,6.33
2023-05-21T10:42:31.144Z,5.37
2023-05-21T10:45:50.911Z,5.43
2023-05-21T10:48:38.751Z,5.07
2023-05-21T10:51:12.083Z,5.00
2023-05-21T10:54:37.201Z,5.70
2023-05-21T10:57:04.782Z,6.30
2023-05-21T10:59:47.297Z,4.97
2023-05-21T11:02:17.840Z,4.03
2023-05-21T11:04:45.769Z,5.00
2023-05-21T11:07:13.609Z,4.40
2023-05-21T11:09:43.914Z,4.33
2023-05-21T11:12:13.025Z,4.70
2023-05-21T11:14:43.184Z,5.50
2023-05-21T11:17:37.055Z,5.33
2023-05-21T11:20:14.450Z,7.70
2023-05-21T11:22:42.062Z,6.23
2023-05-21T11:25:09.868Z,4.50
2023-05-21T11:27:38.564Z,4.20
2023-05-21T11:30:16.670Z,4.07
2023-05-21T11:33:10.754Z,3.50
2023-05-21T11:36:01.311Z,4.50
2023-05-21T11:38:31.721Z,4.53
2023-05-21T11:41:04.142Z,4.73
2023-05-21T11:43:31.480Z,3.90
2023-05-21T11:45:59.261Z,4.77
2023-05-21T11:48:28.502Z,4.20
2023-05-21T11:50:57.574Z,4.33
2023-05-21T11:53:24.718Z,4.63
2023-05-21T11:55:57.545Z,4.07
2023-05-21T11:58:24.960Z,3.57
2023-05-21T12:00:52.152Z,4.10
2023-05-21T12:03:19.937Z,4.23
2023-05-21T12:05:48.583Z,5.23
2023-05-21T12:08:25.550Z,3.90
2023-05-21T12:11:00.336Z,3.50
2023-05-21T12:13:28.645Z,4.00
2023-05-21T12:15:56.120Z,4.40
2023-05-21T12:18:23.357Z,4.20
2023-05-21T12:20:52.360Z,4.50
2023-05-21T12:23:26.694Z,4.33
2023-05-21T12:25:54.259Z,4.80
2023-05-21T12:28:22.766Z,3.70
2023-05-21T12:30:49.925Z,5.00
2023-05-21T12:33:19.648Z,3.80
2023-05-21T12:35:50.414Z,3.67
2023-05-21T12:38:17.858Z,4.13
2023-05-21T12:40:45.881Z,4.23
2023-05-21T12:43:13.472Z,4.53
2023-05-21T12:45:41.264Z,4.20
2023-05-21T12:48:08.888Z,3.53
2023-05-21T12:50:41.173Z,4.40
2023-05-21T12:53:11.444Z,4.97
2023-05-21T12:55:38.855Z,4.03
2023-05-21T12:58:08.782Z,3.90
2023-05-21T13:00:37.119Z,4.60
2023-05-21T13:03:06.631Z,4.57
2023-05-21T13:05:35.278Z,7.00
2023-05-21T13:08:02.783Z,7.10
2023-05-21T13:10:29.943Z,6.80
2023-05-21T13:12:57.068Z,6.87
2023-05-21T13:15:24.240Z,6.10
2023-05-21T13:17:53.136Z,5.03
2023-05-21T13:20:23.723Z,4.70
2023-05-21T13:22:52.245Z,3.60
2023-05-21T13:25:27.482Z,4.97
2023-05-21T13:27:55.572Z,4.70
2023-05-21T13:30:23.080Z,3.97
2023-05-21T13:32:50.647Z,4.27
2023-05-21T13:35:18.050Z,4.07
2023-05-21T13:37:46.020Z,4.37
2023-05-21T13:40:15.923Z,3.80
2023-05-21T13:42:45.469Z,4.70
2023-05-21T13:45:16.419Z,4.67
2023-05-21T13:47:45.643Z,3.67
2023-05-21T13:50:13.424Z,4.00
2023-05-21T13:52:40.855Z,4.20
2023-05-21T13:55:08.951Z,4.37
2023-05-21T13:57:36.112Z,4.20
2023-05-21T14:00:04.769Z,4.30
2023-05-21T14:02:35.328Z,4.57
2023-05-21T14:05:02.616Z,4.03
2023-05-21T14:07:29.748Z,4.13
2023-05-21T14:09:56.951Z,3.40
2023-05-21T14:12:24.234Z,3.93
2023-05-21T14:14:51.884Z,4.10
2023-05-21T14:17:19.075Z,3.90
2023-05-21T14:19:47.998Z,3.77
2023-05-21T14:22:15.397Z,4.70
2023-05-21T14:24:42.519Z,4.00
2023-05-21T14:27:09.650Z,4.57
2023-05-21T14:29:36.808Z,3.77
2023-05-21T14:32:04.071Z,4.60
2023-05-21T14:34:31.251Z,3.60
2023-05-21T14:36:58.403Z,3.50
2023-05-21T14:39:25.523Z,3.53
2023-05-21T14:41:53.309Z,4.20
2023-05-21T14:44:20.421Z,4.20
2023-05-21T14:46:47.678Z,3.63
2023-05-21T14:49:14.888Z,4.30
2023-05-21T14:51:43.688Z,4.33
2023-05-21T14:54:14.372Z,4.87
2023-05-21T14:56:41.648Z,3.90
2023-05-21T14:59:11.333Z,4.10
2023-05-21T15:01:39.445Z,3.90
2023-05-21T15:04:08.128Z,4.10
2023-05-21T15:06:35.412Z,4.53
2023-05-21T15:09:02.518Z,3.50
2023-05-21T15:11:29.728Z,4.13
2023-05-21T15:13:56.881Z,4.50
2023-05-21T15:16:24.223Z,4.03
2023-05-21T15:18:51.482Z,3.77
2023-05-21T15:21:18.775Z,4.07
2023-05-21T15:23:45.992Z,4.30
2023-05-21T15:26:13.232Z,4.27
2023-05-21T15:28:40.360Z,5.33
2023-05-21T15:31:07.608Z,4.23
2023-05-21T15:33:34.827Z,4.00
2023-05-21T15:36:02.046Z,4.40
2023-05-21T15:38:29.135Z,3.30
2023-05-21T15:40:59.626Z,4.73
2023-05-21T15:43:26.854Z,3.97
2023-05-21T15:45:53.923Z,4.47
2023-05-21T15:48:22.970Z,3.87
2023-05-21T15:50:50.203Z,4.00
2023-05-21T15:53:17.687Z,4.47
2023-05-21T15:55:44.926Z,4.50
2023-05-21T15:58:12.060Z,3.63
2023-05-21T16:00:39.598Z,4.00
2023-05-21T16:03:06.839Z,4.43
2023-05-21T16:05:34.152Z,4.73
2023-05-21T16:08:01.452Z,5.30
2023-05-21T16:10:28.610Z,4.93
2023-05-21T16:12:55.846Z,5.93
2023-05-21T16:15:23.028Z,4.00
2023-05-21T16:17:50.185Z,4.20
2023-05-21T16:20:18.808Z,3.73
2023-05-21T16:22:46.007Z,4.20
2023-05-21T16:25:13.074Z,4.53
2023-05-21T16:27:40.550Z,7.20
2023-05-21T16:30:08.485Z,12.60
2023-05-21T16:32:35.774Z,6.90
2023-05-21T16:35:03.076Z,4.90
2023-05-21T16:37:30.190Z,4.43
2023-05-21T16:39:57.424Z,4.63
2023-05-21T16:42:24.729Z,3.93
2023-05-21T16:44:52.026Z,3.90
2023-05-21T16:47:19.140Z,3.47
2023-05-21T16:49:46.315Z,3.30
2023-05-21T16:52:13.585Z,4.20
2023-05-21T16:54:40.877Z,4.53
2023-05-21T16:57:08.191Z,5.07
2023-05-21T16:59:35.485Z,3.90
2023-05-21T17:02:03.181Z,4.03
2023-05-21T17:04:30.473Z,4.20
2023-05-21T17:06:57.690Z,4.47
2023-05-21T17:09:24.834Z,3.90
2023-05-21T17:11:51.986Z,4.33
2023-05-21T17:14:32.583Z,4.40
2023-05-21T17:17:00.912Z,4.60
2023-05-21T17:19:28.426Z,4.17
2023-05-21T17:21:56.351Z,4.80
2023-05-21T17:24:23.554Z,4.90
2023-05-21T17:26:50.829Z,3.57
2023-05-21T17:29:18.671Z,4.30
2023-05-21T17:31:46.002Z,4.60
2023-05-21T17:34:13.178Z,3.97
2023-05-21T17:36:40.259Z,4.00
2023-05-21T17:39:09.909Z,4.27
2023-05-21T17:41:37.138Z,4.00
2023-05-21T17:44:04.497Z,3.83
2023-05-21T17:46:31.643Z,3.63
2023-05-21T17:48:58.883Z,3.70
2023-05-21T17:51:26.029Z,4.13
2023-05-21T17:53:53.180Z,4.77
2023-05-21T17:56:21.718Z,4.10
2023-05-21T17:58:50.340Z,4.50
2023-05-21T18:01:17.610Z,4.00
2023-05-21T18:03:44.851Z,3.83
2023-05-21T18:06:12.004Z,4.27
2023-05-21T18:08:39.170Z,5.13
2023-05-21T18:11:06.288Z,4.80
2023-05-21T18:13:33.444Z,4.40
2023-05-21T18:16:00.745Z,4.47
2023-05-21T18:18:28.313Z,3.53
2023-05-21T18:20:55.634Z,4.50
2023-05-21T18:23:22.768Z,3.90
2023-05-21T18:25:50.737Z,4.50
2023-05-21T18:28:18.169Z,4.40
2023-05-21T18:30:45.461Z,3.37
2023-05-21T18:33:12.674Z,4.80
2023-05-21T18:35:39.822Z,3.73
2023-05-21T18:38:09.880Z,4.00
2023-05-21T18:40:40.213Z,4.00
2023-05-21T18:43:07.439Z,4.63
2023-05-21T18:45:34.664Z,3.97
2023-05-21T18:48:03.123Z,4.80
2023-05-21T18:50:31.769Z,4.87
2023-05-21T18:52:59.078Z,4.20
2023-05-21T18:55:26.805Z,4.23
2023-05-21T18:57:55.764Z,3.90
2023-05-21T19:00:24.243Z,4.93
2023-05-21T19:02:51.676Z,5.20
2023-05-21T19:05:19.144Z,4.10
2023-05-21T19:07:46.449Z,5.60
2023-05-21T19:10:14.086Z,4.30
2023-05-21T19:12:42.515Z,5.80
2023-05-21T19:15:11.032Z,4.50
2023-05-21T19:17:39.793Z,4.80
2023-05-21T19:20:09.142Z,4.57
2023-05-21T19:22:37.401Z,4.20
2023-05-21T19:25:05.013Z,4.07
2023-05-21T19:27:32.553Z,4.30
2023-05-21T19:29:59.765Z,5.10
2023-05-21T19:32:26.936Z,4.40
2023-05-21T19:34:54.050Z,4.27
2023-05-21T19:37:21.315Z,4.40
2023-05-21T19:39:50.157Z,3.30
2023-05-21T19:42:18.854Z,4.37
2023-05-21T19:44:46.328Z,4.50
2023-05-21T19:47:13.704Z,4.87
2023-05-21T19:49:40.868Z,5.10
2023-05-21T19:52:08.045Z,4.33
2023-05-21T19:54:35.180Z,5.50
2023-05-21T19:57:02.421Z,4.07
2023-05-21T19:59:29.632Z,4.63
2023-05-21T20:01:56.813Z,4.13
2023-05-21T20:04:24.155Z,4.63
2023-05-21T20:06:52.171Z,4.57
2023-05-21T20:09:19.392Z,5.23
2023-05-21T20:11:48.166Z,4.37
2023-05-21T20:14:15.422Z,4.50
2023-05-21T20:16:42.669Z,4.50
2023-05-21T20:19:11.306Z,5.07
2023-05-21T20:21:38.504Z,5.37
2023-05-21T20:24:06.430Z,5.27
2023-05-21T20:26:36.554Z,5.20
2023-05-21T20:29:03.709Z,5.43
2023-05-21T20:31:31.061Z,5.30
2023-05-21T20:33:58.816Z,4.70
2023-05-21T20:36:27.121Z,4.43
2023-05-21T20:38:54.361Z,5.30
2023-05-21T20:41:21.888Z,5.87
2023-05-21T20:43:49.096Z,5.20
2023-05-21T20:46:18.402Z,5.30
2023-05-21T20:48:45.694Z,5.30
2023-05-21T20:51:13.028Z,4.77
2023-05-21T20:53:40.133Z,5.50
2023-05-21T20:56:08.629Z,4.50
2023-05-21T20:58:35.774Z,5.37
2023-05-21T21:01:03.717Z,5.30
2023-05-21T21:03:34.182Z,5.13
2023-05-21T21:06:01.646Z,5.60
2023-05-21T21:08:28.997Z,5.50
2023-05-21T21:10:56.456Z,5.20
2023-05-21T21:13:23.986Z,5.83
2023-05-21T21:15:51.125Z,5.37
2023-05-21T21:18:18.270Z,4.20
2023-05-21T21:20:49.723Z,5.70
2023-05-21T21:23:17.079Z,5.63
2023-05-21T21:25:44.498Z,5.20
2023-05-21T21:28:11.873Z,4.90
2023-05-21T21:30:41.164Z,5.57
2023-05-21T21:33:09.153Z,4.60
2023-05-21T21:35:36.414Z,5.50
2023-05-21T21:38:05.100Z,5.50
2023-05-21T21:40:32.337Z,5.30
2023-05-21T21:42:59.633Z,5.23
2023-05-21T21:45:26.870Z,5.17
2023-05-21T21:47:54.063Z,4.50
2023-05-21T21:50:21.154Z,5.70
2023-05-21T21:52:48.972Z,4.60
2023-05-21T21:55:16.229Z,4.47
2023-05-21T21:57:43.370Z,5.50
2023-05-21T22:00:15.746Z,4.60
2023-05-21T22:02:44.091Z,5.23
2023-05-21T22:05:14.898Z,5.67
2023-05-21T22:07:46.863Z,4.63
2023-05-21T22:10:18.212Z,5.40
2023-05-21T22:12:46.222Z,4.60
2023-05-21T22:15:25.100Z,6.03
2023-05-21T22:17:52.444Z,5.17
2023-05-21T22:20:20.137Z,4.93
2023-05-21T22:22:47.343Z,5.13
2023-05-21T22:25:14.719Z,5.33
2023-05-21T22:27:43.162Z,5.17
2023-05-21T22:30:11.362Z,6.20
2023-05-21T22:32:38.566Z,5.10
2023-05-21T22:35:06.437Z,4.90
2023-05-21T22:37:33.632Z,4.80
2023-05-21T22:40:00.705Z,4.90
2023-05-21T22:42:27.799Z,5.40
2023-05-21T22:44:54.973Z,4.33
2023-05-21T22:47:23.953Z,5.47
2023-05-21T22:49:53.745Z,5.90
2023-05-21T22:52:24.372Z,4.70
2023-05-21T22:54:54.762Z,5.70
2023-05-21T22:57:21.944Z,6.00
2023-05-21T22:59:49.092Z,4.93
2023-05-21T23:02:16.716Z,6.27
2023-05-21T23:04:44.698Z,4.50
2023-05-21T23:07:12.646Z,4.90
2023-05-21T23:09:39.812Z,5.07
2023-05-21T23:12:08.156Z,4.80
2023-05-21T23:14:35.332Z,5.70
2023-05-21T23:17:02.631Z,4.10
2023-05-21T23:19:30.199Z,5.60
2023-05-21T23:21:57.537Z,4.47
2023-05-21T23:24:24.607Z,5.00
2023-05-21T23:26:52.509Z,5.00
2023-05-21T23:29:19.582Z,4.87
2023-05-21T23:31:47.094Z,4.83
2023-05-21T23:34:15.092Z,5.57
2023-05-21T23:36:42.426Z,6.10
2023-05-21T23:39:09.624Z,5.67
2023-05-21T23:41:37.305Z,5.10
2023-05-21T23:44:04.576Z,4.93
2023-05-21T23:46:31.712Z,4.80
2023-05-21T23:48:58.883Z,5.33
2023-05-21T23:51:26.371Z,4.50
2023-05-21T23:53:53.462Z,4.30
2023-05-21T23:56:20.608Z,5.30
2023-05-21T23:58:53.243Z,4.40
